Tiempo atmosférico en la estación meteorológica de Montanejos, Castelló/Castellón (601 m.)



Fecha
DESCASC
Temp. máxima en grados centígrados (hora)
DESCASC
Temp. mínima en grados centígrados (hora)
DESCASC
Temp. media en grados centígrados
DESCASC
Racha de viento máxima en m/sg (hora)
DESCASC
Velocidad máxima media en intervalos de 10 minutos(hora)
DESCASC
Precipitaciones diarias en mm
DESCASC
Precipitaciones de 00:00 a 06:00 en mm
DESCASC
Precipitaciones de 06:00 a 12:00 en mm
DESCASC
Precipitaciones de 12:00 a 18:00 en mm
DESCASC
Precipitaciones de 18:00 a 24:00 en mm
DESCASC
29-10-2020 22 (13:30) 7.9 (07:50) 15 8.06 (15:30) 4.17 (15:20) 0 0 0 0 0
28-10-2020 24.1 (13:30) 9.9 (00:10) 17 10.83 (14:20) 6.67 (14:30) 0 0 0 0 0
27-10-2020 18.6 (16:10) 8.5 (00:00) 13.6 11.11 (02:10) 6.67 (02:10) 0 0 0 0 0
26-10-2020 16.4 (00:00) 9.4 (00:00) 12.9 17.22 (09:50) 10.83 (11:10) 0.2 0.2 0 0 0
25-10-2020 20.7 (13:50) 7.9 (00:00) 14.3 15.28 (23:20) 9.72 (23:20) 0 0 0 0 0
24-10-2020 23.2 (16:10) 8.6 (00:00) 15.9 7.5 (17:40) 5.28 (17:30) 0 0 0 0 0
23-10-2020 19.7 (17:00) 10.1 (00:00) 14.9 11.39 (11:30) 5.56 (17:40) 0 0 0 0 0
22-10-2020 18.4 (13:30) 13.6 (00:00) 16 4.72 (13:20) 2.5 (13:20) 2.4 0 0 2.4 0
21-10-2020 24 (15:00) 13 (00:00) 18.5 9.44 (12:40) 4.72 (13:00) 0 0 0 0 0
20-10-2020 17.7 (14:30) 13.3 (00:00) 15.5 7.5 (19:20) 3.33 (15:40) 0 0 0 0 0
19-10-2020 20.7 (15:30) 7.5 (00:00) 14.1 8.33 (14:30) 4.17 (15:50) 0 0 0 0 0
18-10-2020 21.3 (14:40) 5.1 (00:00) 13.2 8.33 (16:30) 4.72 (17:10) 0 0 0 0 0
17-10-2020 20.5 (16:00) 3.3 (00:00) 11.9 10 (16:30) 6.39 (16:30) 0 0 0 0 0
16-10-2020 18.5 (15:30) 6.4 (00:00) 12.5 11.94 (02:00) 5.28 (02:00) 0 0 0 0 0
15-10-2020 16 (18:20) 8.2 (00:00) 12.1 13.33 (10:40) 8.33 (11:20) 0 0 0 0 0
14-10-2020 17.1 (15:40) 11.3 (00:00) 14.2 12.78 (16:50) 8.33 (16:10) 0 0 0 0 0
13-10-2020 22.8 (17:40) 13.2 (00:00) 18 11.11 (11:20) 6.39 (14:30) 0 0 0 0 0
12-10-2020 19.1 (16:20) 10.9 (00:00) 15 17.22 (05:50) 10 (05:20) 0 0 0 0 0
11-10-2020 18.4 (16:10) 11.1 (00:00) 14.8 18.06 (12:30) 10 (12:30) 0 0 0 0 0
10-10-2020 22.6 (16:30) 12.9 (00:00) 17.8 9.17 (17:30) 5.83 (17:30) 0 0 0 0 0
09-10-2020 25.5 (14:30) 12.8 (00:00) 19.2 9.72 (15:50) 5.56 (16:50) 0 0 0 0 0
08-10-2020 26.1 (15:40) 10.4 (00:00) 18.3 9.17 (17:30) 4.72 (17:30) 0 0 0 0 0
07-10-2020 27.1 (14:20) 14.4 (00:00) 20.8 8.06 (17:30) 4.72 (17:40) 0 0 0 0 0
06-10-2020 25.1 (15:50) 8.4 (00:00) 16.8 8.61 (14:40) 5 (15:00) 0 0 0 0 0
05-10-2020 19.6 (16:50) 7.3 (00:00) 13.5 11.94 (12:30) 7.5 (12:10) 0 0 0 0 0
04-10-2020 18.8 (16:00) 5.6 (00:00) 12.2 21.39 (16:30) 9.17 (16:30) 0 0 0 0 0
03-10-2020 19.3 (17:20) 9.4 (00:00) 14.3 15.56 (11:10) 8.61 (11:10) 0 0 0 0 0
02-10-2020 18.7 (03:00) 9.2 (00:00) 14 20.83 (15:30) 11.67 (15:30) 5.8 0 0 5.8 0
01-10-2020 28.8 (15:10) 11.7 (00:00) 20.2 10.28 (16:10) 6.39 (16:10) 0 0 0 0 0

Gráficas

Temp. máximas Temp. mínimas Temp. medias Precipitaciones Rachas de viento máximas Velocidades máximas media en intervalos de 10 minutos

Datos horarios

Fecha y hora oficial Temperatura (ºC) Velocidad del viento (km/h) Dirección del viento Racha (km/h) Dirección de racha Precipitación (mm) Presión (hPa) Tendencia (hPa) Humedad (%)
2020-10-30 23:00:00 11.4 3 Noroeste 7 Oeste 0 -- -- 80
2020-10-30 22:00:00 12.1 2 Noroeste 5 Oeste 0 -- -- 83
2020-10-30 21:00:00 12.9 2 Noroeste 5 Noroeste 0 -- -- 83
2020-10-30 20:00:00 14.1 0 Calma 7 Sudeste 0 -- -- 77
2020-10-30 19:00:00 15.8 3 Sudeste 17 Sur 0 -- -- 72
2020-10-30 18:00:00 17.8 11 Sur 25 Sur 0 -- -- 66
2020-10-30 17:00:00 20.4 14 Sur 23 Sur 0 -- -- 54
2020-10-30 16:00:00 24.1 10 Sur 19 Sur 0 -- -- 39
2020-10-30 15:00:00 25.5 11 Sur 19 Sur 0 -- -- 30
2020-10-30 14:00:00 25 11 Sur 20 Sudoeste 0 -- -- 30
2020-10-30 13:00:00 21.9 8 Sudoeste 14 Sur 0 -- -- 35
2020-10-30 12:00:00 17.9 2 Noroeste 5 Oeste 0 -- -- 38
2020-10-30 11:00:00 14 2 Noroeste 4 Nordeste 0 -- -- 45
2020-10-30 10:00:00 10.5 2 Noroeste 15 Noroeste 0 -- -- 58
2020-10-30 09:00:00 7.2 8 Norte 18 Noroeste 0 -- -- 71
2020-10-30 08:00:00 6.5 9 Norte 17 Noroeste 0 -- -- 76
2020-10-30 07:00:00 6.8 9 Noroeste 17 Noroeste 0 -- -- 77
2020-10-30 06:00:00 6.9 10 Norte 19 Noroeste 0 -- -- 79
2020-10-30 05:00:00 7.7 6 Noroeste 16 Noroeste 0 -- -- 79
2020-10-30 04:00:00 8.1 8 Noroeste 14 Noroeste 0 -- -- 81
2020-10-30 03:00:00 8.7 7 Noroeste 14 Noroeste 0 -- -- 83
2020-10-30 02:00:00 9.2 8 Noroeste 13 Norte 0 -- -- 81
2020-10-30 01:00:00 9.8 6 Noroeste 12 Norte 0 -- -- 83
2020-10-30 00:00:00 10.4 3 Noroeste 12 Oeste 0 -- -- 85
2020-10-29 23:00:00 11 5 Noroeste 10 Noroeste 0 -- -- 86
2020-10-29 22:00:00 11.7 4 Oeste 9 Noroeste 0 -- -- 85
2020-10-29 21:00:00 12.6 0 Calma 4 Norte 0 -- -- 84
2020-10-29 20:00:00 13.9 3 Norte 5 Sudeste 0 -- -- 79
2020-10-29 19:00:00 15.4 3 Sur 12 Sur 0 -- -- 72
2020-10-29 18:00:00 17.1 6 Sur 20 Sur 0 -- -- 66
2020-10-29 17:00:00 18.5 12 Sur 22 Sur 0 -- -- 60
2020-10-29 16:00:00 20.5 13 Sur 29 Sur 0 -- -- 55
2020-10-29 15:00:00 21.4 12 Sur 26 Sur 0 -- -- 52
2020-10-29 14:00:00 21.9 8 Sur 24 Sur 0 -- -- 48
2020-10-29 13:00:00 21.2 14 Sur 26 Sur 0 -- -- 46
2020-10-29 12:00:00 17.8 3 Noroeste 6 Nordeste 0 -- -- 57
2020-10-29 11:00:00 15.1 0 Calma 3 Noroeste 0 -- -- 64
2020-10-29 10:00:00 11.6 0 Calma 10 Noroeste 0 -- -- 75
2020-10-29 09:00:00 8.4 5 Noroeste 14 Noroeste 0 -- -- 86
2020-10-29 08:00:00 7.9 8 Noroeste 14 Noroeste 0 -- -- 88
2020-10-29 07:00:00 8.1 6 Noroeste 15 Noroeste 0 -- -- 88
2020-10-29 06:00:00 8.6 9 Noroeste 16 Noroeste 0 -- -- 87
2020-10-29 05:00:00 9 5 Noroeste 10 Noroeste 0 -- -- 87
2020-10-29 04:00:00 9.4 5 Noroeste 13 Noroeste 0 -- -- 85
2020-10-29 03:00:00 9.6 4 Noroeste 12 Noroeste 0 -- -- 83
2020-10-29 02:00:00 10.1 5 Noroeste 12 Noroeste 0 -- -- 82
2020-10-29 01:00:00 10.4 4 Noroeste 8 Noroeste 0 -- -- 80
2020-10-29 00:00:00 10.5 3 Noroeste 5 Oeste 0 -- -- 77
2020-10-28 23:00:00 11.2 0 Calma 5 Noroeste 0 -- -- 75
2020-10-28 22:00:00 11.6 0 Calma 5 Oeste 0 -- -- 73
2020-10-28 21:00:00 12.8 2 Noroeste 5 Norte 0 -- -- 70
2020-10-28 20:00:00 13.9 3 Norte 7 Norte 0 -- -- 66
2020-10-28 19:00:00 15.5 0 Calma 12 Sur 0 -- -- 59
2020-10-28 18:00:00 16.8 7 Sur 19 Sudoeste 0 -- -- 53
2020-10-28 17:00:00 18 10 Sur 27 Sur 0 -- -- 50
2020-10-28 16:00:00 19.1 16 Sur 30 Sur 0 -- -- 47
2020-10-28 15:00:00 20.1 23 Sur 39 Sur 0 -- -- 44
2020-10-28 14:00:00 22.2 16 Sur 29 Sur 0 -- -- 41
2020-10-28 13:00:00 22.6 9 Noroeste 22 Noroeste 0 -- -- 45
2020-10-28 12:00:00 20.9 2 Oeste 8 Norte 0 -- -- 48
2020-10-28 11:00:00 18.4 3 Norte 12 Noroeste 0 -- -- 55
2020-10-28 10:00:00 15.2 3 Oeste 8 Noroeste 0 -- -- 62
2020-10-28 09:00:00 11 0 Calma 8 Noroeste 0 -- -- 75
2020-10-28 08:00:00 10.8 2 Noroeste 9 Noroeste 0 -- -- 76
2020-10-28 07:00:00 11.7 4 Noroeste 11 Norte 0 -- -- 73
2020-10-28 06:00:00 12.4 5 Noroeste 10 Norte 0 -- -- 71
2020-10-28 05:00:00 12.3 4 Noroeste 8 Noroeste 0 -- -- 69
2020-10-28 04:00:00 11.4 3 Noroeste 10 Oeste 0 -- -- 69
2020-10-28 03:00:00 10.5 0 Calma 8 Norte 0 -- -- 70
2020-10-28 02:00:00 10.1 0 Calma 3 Noroeste 0 -- -- 71
2020-10-28 01:00:00 10.1 2 Norte 9 Norte 0 -- -- 71
2020-10-28 00:00:00 10 5 Noroeste 12 Oeste 0 -- -- 71
2020-10-27 23:00:00 9.8 3 Norte 6 Norte 0 -- -- 71
2020-10-27 22:00:00 10.1 0 Calma 5 Norte 0 -- -- 66
2020-10-27 21:00:00 11.1 0 Calma 6 Noroeste 0 -- -- 63
2020-10-27 20:00:00 12.1 0 Calma 10 Sur 0 -- -- 59
2020-10-27 19:00:00 13.8 10 Sur 19 Sur 0 -- -- 50
2020-10-27 18:00:00 15.7 6 Sur 19 Este 0 -- -- 44
2020-10-27 17:00:00 18.1 10 Noroeste 20 Noroeste 0 -- -- 38
2020-10-27 16:00:00 18.5 10 Noroeste 27 Noroeste 0 -- -- 34
2020-10-27 15:00:00 17.7 14 Noroeste 26 Noroeste 0 -- -- 35
2020-10-27 14:00:00 16.5 12 Noroeste 24 Oeste 0 -- -- 38
2020-10-27 13:00:00 15.2 13 Noroeste 25 Noroeste 0 -- -- 42
2020-10-27 12:00:00 14 12 Noroeste 35 Noroeste 0 -- -- 48
2020-10-27 11:00:00 12.9 19 Noroeste 39 Noroeste 0 -- -- 52
2020-10-27 10:00:00 11.7 18 Noroeste 31 Noroeste 0 -- -- 55
2020-10-27 09:00:00 9.8 10 Noroeste 21 Noroeste 0 -- -- 60
2020-10-27 08:00:00 8.6 4 Norte 17 Noroeste 0 -- -- 61
2020-10-27 07:00:00 9.1 10 Noroeste 30 Oeste 0 -- -- 62
2020-10-27 06:00:00 9.1 11 Noroeste 21 Noroeste 0 -- -- 60
2020-10-27 05:00:00 9.8 12 Noroeste 34 Noroeste 0 -- -- 57
2020-10-27 04:00:00 9.9 15 Noroeste 34 Norte 0 -- -- 55
2020-10-27 03:00:00 9.4 14 Noroeste 40 Noroeste 0 -- -- 55
2020-10-27 02:00:00 9.6 22 Noroeste 35 Noroeste 0 -- -- 54
2020-10-27 01:00:00 10 15 Noroeste 35 Noroeste 0 -- -- 52
2020-10-27 00:00:00 10.4 19 Noroeste 44 Noroeste 0 -- -- 52
2020-10-26 23:00:00 10.9 23 Noroeste 40 Noroeste 0 -- -- 54
2020-10-26 22:00:00 11 14 Norte 36 Noroeste 0 -- -- 51
2020-10-26 21:00:00 11.2 11 Noroeste 31 Oeste 0 -- -- 50
2020-10-26 20:00:00 11.9 16 Noroeste 33 Norte 0 -- -- 49
2020-10-26 19:00:00 12.6 20 Noroeste 40 Norte 0 -- -- 46
2020-10-26 18:00:00 13.1 13 Noroeste 49 Noroeste 0 -- -- 44
2020-10-26 17:00:00 13.6 18 Noroeste 50 Noroeste 0 -- -- 41
2020-10-26 16:00:00 14.4 18 Noroeste 44 Oeste 0 -- -- 42
2020-10-26 15:00:00 14.1 17 Noroeste 45 Noroeste 0 -- -- 43
2020-10-26 14:00:00 13.8 22 Noroeste 44 Noroeste 0 -- -- 46
2020-10-26 13:00:00 12.6 30 Noroeste 57 Noroeste 0 -- -- 47
2020-10-26 12:00:00 11.9 33 Noroeste 57 Noroeste 0 -- -- 53
2020-10-26 11:00:00 11.2 28 Noroeste 61 Norte 0 -- -- 54
2020-10-26 10:00:00 10.7 37 Noroeste 62 Noroeste 0 -- -- 56
2020-10-26 09:00:00 10 21 Noroeste 46 Noroeste 0 -- -- 59
2020-10-26 08:00:00 9.7 18 Noroeste 34 Noroeste 0 -- -- 62
2020-10-26 07:00:00 9.7 6 Oeste 24 Oeste 0 -- -- 62
2020-10-26 06:00:00 10.5 11 Noroeste 24 Noroeste 0 -- -- 64
2020-10-26 05:00:00 11.4 18 Noroeste 31 Noroeste 0 -- -- 63
2020-10-26 04:00:00 12.1 12 Noroeste 27 Noroeste 0.2 -- -- 73
2020-10-26 03:00:00 13 18 Noroeste 39 Noroeste 0 -- -- 76
2020-10-26 02:00:00 14.7 23 Noroeste 44 Noroeste 0 -- -- 62
2020-10-26 01:00:00 15.5 30 Noroeste 51 Noroeste 0 -- -- 58
2020-10-26 00:00:00 16.4 25 Noroeste 55 Noroeste 0 -- -- 60
2020-10-25 23:00:00 16 26 Noroeste 54 Noroeste 0 -- -- 63
2020-10-25 22:00:00 16.5 14 Noroeste 28 Noroeste 0 -- -- 60
2020-10-25 21:00:00 16.7 11 Noroeste 30 Oeste 0 -- -- 58
2020-10-25 20:00:00 16.7 12 Oeste 33 Noroeste 0 -- -- 55
2020-10-25 19:00:00 17 13 Noroeste 26 Noroeste 0 -- -- 52
2020-10-25 18:00:00 17.7 14 Noroeste 37 Noroeste 0 -- -- 49
2020-10-25 17:00:00 18.7 12 Noroeste 33 Noroeste 0 -- -- 44
2020-10-25 16:00:00 20 10 Noroeste 28 Norte 0 -- -- 44
2020-10-25 15:00:00 20.2 15 Oeste 42 Noroeste 0 -- -- 43
2020-10-25 14:00:00 20.7 18 Noroeste 37 Noroeste 0 -- -- 39
2020-10-25 13:00:00 19.6 23 Noroeste 43 Noroeste 0 -- -- 43
2020-10-25 12:00:00 19.2 17 Noroeste 33 Noroeste 0 -- -- 40
2020-10-25 11:00:00 18.1 18 Norte 30 Norte 0 -- -- 40
2020-10-25 10:00:00 16.4 5 Norte 24 Noroeste 0 -- -- 46
2020-10-25 09:00:00 14.3 17 Noroeste 29 Noroeste 0 -- -- 51
2020-10-25 08:00:00 13.2 10 Noroeste 28 Noroeste 0 -- -- 56
2020-10-25 07:00:00 8.5 3 Sur 9 Sudeste 0 -- -- 84
2020-10-25 06:00:00 8 0 Calma 4 Nordeste 0 -- -- 87
2020-10-25 05:00:00 7.9 0 Calma 5 Norte 0 -- -- 88
2020-10-25 04:00:00 8.2 2 Norte 4 Noroeste 0 -- -- 87
2020-10-25 03:00:00 8.3 0 Calma 4 Noroeste 0 -- -- 84
2020-10-25 02:00:00 8.7 0 Calma 7 Oeste 0 -- -- 81
2020-10-25 01:00:00 10 5 Noroeste 9 Noroeste 0 -- -- 77
2020-10-25 00:00:00 10.7 2 Noroeste 6 Oeste 0 -- -- 76
2020-10-24 23:00:00 11.8 3 Oeste 6 Noroeste 0 -- -- 71
2020-10-24 22:00:00 12.7 2 Norte 6 Noroeste 0 -- -- 69
2020-10-24 21:00:00 13.8 2 Norte 6 Norte 0 -- -- 66
2020-10-24 20:00:00 15.6 0 Calma 15 Sur 0 -- -- 59
2020-10-24 19:00:00 17.4 9 Sur 23 Sur 0 -- -- 51
2020-10-24 18:00:00 18.8 16 Sur 27 Sur 0 -- -- 46
2020-10-24 17:00:00 21.5 8 Sudoeste 24 Sur 0 -- -- 39
2020-10-24 16:00:00 23.1 4 Sudoeste 9 Sudoeste 0 -- -- 31
2020-10-24 15:00:00 21.2 3 Oeste 9 Sur 0 -- -- 36
2020-10-24 14:00:00 19.9 3 Norte 12 Oeste 0 -- -- 40
2020-10-24 13:00:00 17.9 5 Oeste 19 Oeste 0 -- -- 45
2020-10-24 12:00:00 16.1 9 Noroeste 17 Noroeste 0 -- -- 52
2020-10-24 11:00:00 13.4 5 Norte 9 Nordeste 0 -- -- 59
2020-10-24 10:00:00 9.1 0 Calma 8 Norte 0 -- -- 78
2020-10-24 09:00:00 8.7 3 Noroeste 5 Noroeste 0 -- -- 80
2020-10-24 08:00:00 9.6 2 Norte 18 Noroeste 0 -- -- 73
2020-10-24 07:00:00 10.4 9 Norte 16 Noroeste 0 -- -- 72
2020-10-24 06:00:00 10.9 6 Norte 20 Noroeste 0 -- -- 70
2020-10-24 05:00:00 11.2 8 Noroeste 17 Noroeste 0 -- -- 69
2020-10-24 04:00:00 11.4 10 Noroeste 17 Noroeste 0 -- -- 68
2020-10-24 03:00:00 10.1 0 Calma 13 Norte 0 -- -- 71
2020-10-24 02:00:00 11.9 7 Noroeste 19 Noroeste 0 -- -- 64
2020-10-24 01:00:00 12.5 9 Noroeste 24 Noroeste 0 -- -- 62
2020-10-24 00:00:00 13 8 Noroeste 27 Oeste 0 -- -- 59
2020-10-23 23:00:00 13.4 13 Noroeste 27 Noroeste 0 -- -- 57
2020-10-23 22:00:00 14.2 14 Noroeste 30 Noroeste 0 -- -- 55
2020-10-23 21:00:00 14.9 14 Noroeste 26 Noroeste 0 -- -- 55
2020-10-23 20:00:00 16 15 Noroeste 33 Noroeste 0 -- -- 51
2020-10-23 19:00:00 17.1 17 Noroeste 34 Noroeste 0 -- -- 50
2020-10-23 18:00:00 18.2 14 Noroeste 33 Noroeste 0 -- -- 44
2020-10-23 17:00:00 19.7 12 Noroeste 31 Oeste 0 -- -- 37
2020-10-23 16:00:00 19.1 12 Noroeste 30 Noroeste 0 -- -- 40
2020-10-23 15:00:00 18.9 15 Noroeste 37 Noroeste 0 -- -- 44
2020-10-23 14:00:00 17.9 15 Noroeste 32 Oeste 0 -- -- 47
2020-10-23 13:00:00 17.4 15 Noroeste 35 Oeste 0 -- -- 47
2020-10-23 12:00:00 16.6 17 Noroeste 41 Noroeste 0 -- -- 53
2020-10-23 11:00:00 15.5 10 Noroeste 17 Noroeste 0 -- -- 63
2020-10-23 10:00:00 11 3 Oeste 9 Norte 0 -- -- 93
2020-10-23 09:00:00 10.1 0 Calma 8 Sudoeste 0 -- -- 98
2020-10-23 08:00:00 10.6 0 Calma 5 Norte 0 -- -- 98
2020-10-23 07:00:00 11 0 Calma 6 Norte 0 -- -- 97
2020-10-23 06:00:00 11.4 2 Norte 6 Oeste 0 -- -- 97
2020-10-23 05:00:00 11.9 0 Calma 9 Noroeste 0 -- -- 96
2020-10-23 04:00:00 12.6 3 Noroeste 6 Noroeste 0 -- -- 97
2020-10-23 03:00:00 12.9 2 Noroeste 7 Noroeste 0 -- -- 97
2020-10-23 02:00:00 13.4 0 Calma 6 Norte 0 -- -- 97
2020-10-23 01:00:00 13.9 0 Calma 8 Noroeste 0 -- -- 97
2020-10-23 00:00:00 14.3 0 Calma 6 Oeste 0 -- -- 96
2020-10-22 23:00:00 14.5 0 Calma 4 Nordeste 0 -- -- 96
2020-10-22 22:00:00 14.6 0 Calma 6 Sur 0 -- -- 96
2020-10-22 21:00:00 14.9 0 Calma 6 Sur 0 -- -- 95
2020-10-22 20:00:00 15.1 0 Calma 9 Sur 0 -- -- 94
2020-10-22 19:00:00 15.5 2 Sur 6 Sudeste 0 -- -- 93
2020-10-22 18:00:00 15.8 2 Sur 6 Sur 0.2 -- -- 94
2020-10-22 17:00:00 15.7 0 Calma 5 Sur 1 -- -- 91
2020-10-22 16:00:00 15.8 4 Sur 11 Sur 0.6 -- -- 91
2020-10-22 15:00:00 16.7 5 Sudeste 8 Sur 0.6 -- -- 87
2020-10-22 14:00:00 17.9 4 Sur 17 Sur 0 -- -- 81
2020-10-22 13:00:00 18.1 6 Sudeste 14 Sur 0 -- -- 69
2020-10-22 12:00:00 17.2 3 Oeste 9 Sudoeste 0 -- -- 69
2020-10-22 11:00:00 15.9 0 Calma 3 Norte 0 -- -- 69
2020-10-22 10:00:00 14.1 0 Calma 5 Noroeste 0 -- -- 79
2020-10-22 09:00:00 13.7 0 Calma 5 Sudeste 0 -- -- 80
2020-10-22 08:00:00 13.7 2 Noroeste 12 Norte 0 -- -- 79
2020-10-22 07:00:00 13.8 0 Calma 4 Noroeste 0 -- -- 80
2020-10-22 06:00:00 13.9 0 Calma 5 Noroeste 0 -- -- 80
2020-10-22 05:00:00 14.1 4 Noroeste 7 Noroeste 0 -- -- 80
2020-10-22 04:00:00 14.4 2 Noroeste 7 Noroeste 0 -- -- 77
2020-10-22 03:00:00 14.5 0 Calma 7 Noroeste 0 -- -- 76
2020-10-22 02:00:00 14.9 0 Calma 11 Noroeste 0 -- -- 76
2020-10-22 01:00:00 15.1 4 Noroeste 10 Noroeste 0 -- -- 76
2020-10-22 00:00:00 15.1 3 Noroeste 9 Oeste 0 -- -- 78
2020-10-21 23:00:00 15.2 4 Noroeste 9 Oeste 0 -- -- 81
2020-10-21 22:00:00 15.9 2 Norte 7 Sudeste 0 -- -- 83
2020-10-21 21:00:00 17 2 Nordeste 15 Sur 0 -- -- 84
2020-10-21 20:00:00 17.9 2 Este 22 Sur 0 -- -- 78
2020-10-21 19:00:00 19.5 13 Sur 23 Noroeste 0 -- -- 68
2020-10-21 18:00:00 22.1 13 Noroeste 22 Noroeste 0 -- -- 42
2020-10-21 17:00:00 23.1 10 Norte 33 Noroeste 0 -- -- 38
2020-10-21 16:00:00 23.3 8 Norte 24 Noroeste 0 -- -- 42
2020-10-21 15:00:00 24 6 Nordeste 23 Noroeste 0 -- -- 40
2020-10-21 14:00:00 22.8 13 Noroeste 31 Noroeste 0 -- -- 40
2020-10-21 13:00:00 22.1 17 Noroeste 34 Norte 0 -- -- 42
2020-10-21 12:00:00 21.3 4 Noroeste 13 Sudoeste 0 -- -- 43
2020-10-21 11:00:00 17.1 0 Calma 7 Oeste 0 -- -- 72
2020-10-21 10:00:00 13 0 Calma 10 Este 0 -- -- 93
2020-10-21 09:00:00 13 4 Norte 6 Norte 0 -- -- 93
2020-10-21 08:00:00 13.5 0 Calma 6 Norte 0 -- -- 92
2020-10-21 07:00:00 13.8 2 Noroeste 5 Norte 0 -- -- 92
2020-10-21 06:00:00 14.1 0 Calma 4 Norte 0 -- -- 92
2020-10-21 05:00:00 14.5 0 Calma 5 Sudeste 0 -- -- 92
2020-10-21 04:00:00 14.8 2 Norte 8 Norte 0 -- -- 92
2020-10-21 03:00:00 15 0 Calma 10 Sudoeste 0 -- -- 93
2020-10-21 02:00:00 15.3 6 Sur 12 Sur 0 -- -- 92
2020-10-21 01:00:00 15.5 7 Sur 16 Sur 0 -- -- 93
2020-10-21 00:00:00 15.5 5 Sur 15 Sur 0 -- -- 93
2020-10-20 23:00:00 15.5 7 Sur 20 Sur 0 -- -- 92
2020-10-20 22:00:00 15.4 8 Sur 17 Sur 0 -- -- 91
2020-10-20 21:00:00 15.5 9 Sur 21 Sur 0 -- -- 89
2020-10-20 20:00:00 15.7 8 Sur 27 Sur 0 -- -- 84
2020-10-20 19:00:00 16.2 10 Sur 27 Sur 0 -- -- 82
2020-10-20 18:00:00 16.8 10 Sur 22 Sur 0 -- -- 79
2020-10-20 17:00:00 17.4 10 Sur 22 Sur 0 -- -- 78
2020-10-20 16:00:00 17.4 12 Sur 26 Sur 0 -- -- 78
2020-10-20 15:00:00 17.5 9 Sur 21 Sur 0 -- -- 75
2020-10-20 14:00:00 17.4 4 Sudoeste 18 Sur 0 -- -- 76
2020-10-20 13:00:00 16.8 6 Sur 15 Sur 0 -- -- 75
2020-10-20 12:00:00 15.8 6 Sur 12 Sur 0 -- -- 81
2020-10-20 11:00:00 14.7 6 Sur 12 Sur 0 -- -- 83
2020-10-20 10:00:00 13.8 2 Sur 8 Oeste 0 -- -- 86
2020-10-20 09:00:00 13.4 2 Sur 4 Sudeste 0 -- -- 89
2020-10-20 08:00:00 13.5 0 Calma 5 Este 0 -- -- 88
2020-10-20 07:00:00 13.7 2 Sur 4 Norte 0 -- -- 86
2020-10-20 06:00:00 13.9 0 Calma 8 Sur 0 -- -- 85
2020-10-20 05:00:00 13.9 0 Calma 6 Nordeste 0 -- -- 87
2020-10-20 04:00:00 14.1 0 Calma 4 Este 0 -- -- 86
2020-10-20 03:00:00 14.3 0 Calma 2 Sur 0 -- -- 82
2020-10-20 02:00:00 14.6 0 Calma 2 Sur 0 -- -- 83
2020-10-20 01:00:00 14.6 0 Calma 5 Sudoeste 0 -- -- 83
2020-10-20 00:00:00 14.8 2 Sur 8 Sur 0 -- -- 84
2020-10-19 23:00:00 14.8 3 Sur 8 Sur 0 -- -- 84
2020-10-19 22:00:00 14.8 3 Sur 9 Sur 0 -- -- 84
2020-10-19 21:00:00 14.9 7 Sur 14 Sur 0 -- -- 84
2020-10-19 20:00:00 15.1 9 Sur 21 Sur 0 -- -- 82
2020-10-19 19:00:00 16.4 13 Sur 22 Sur 0 -- -- 74
2020-10-19 18:00:00 18.7 11 Sur 26 Sur 0 -- -- 59
2020-10-19 17:00:00 20.3 13 Sur 27 Sur 0 -- -- 51
2020-10-19 16:00:00 20.7 13 Sur 25 Sur 0 -- -- 50
2020-10-19 15:00:00 20.2 14 Sur 30 Sur 0 -- -- 47
2020-10-19 14:00:00 19.9 13 Sur 27 Sur 0 -- -- 51
2020-10-19 13:00:00 18 7 Sur 22 Sur 0 -- -- 58
2020-10-19 12:00:00 13.4 2 Noroeste 6 Noroeste 0 -- -- 71
2020-10-19 11:00:00 10.4 3 Noroeste 12 Noroeste 0 -- -- 82
2020-10-19 10:00:00 8.5 5 Noroeste 13 Noroeste 0 -- -- 90
2020-10-19 09:00:00 8.3 5 Noroeste 14 Oeste 0 -- -- 91
2020-10-19 08:00:00 8.2 6 Noroeste 12 Noroeste 0 -- -- 93
2020-10-19 07:00:00 7.7 0 Calma 8 Noroeste 0 -- -- 93
2020-10-19 06:00:00 7.5 2 Oeste 10 Noroeste 0 -- -- 93
2020-10-19 05:00:00 7.9 4 Noroeste 12 Noroeste 0 -- -- 92
2020-10-19 04:00:00 8.6 6 Noroeste 12 Noroeste 0 -- -- 91
2020-10-19 03:00:00 9.2 7 Noroeste 12 Noroeste 0 -- -- 90
2020-10-19 02:00:00 10 5 Noroeste 11 Noroeste 0 -- -- 89
2020-10-19 01:00:00 10.7 5 Noroeste 12 Noroeste 0 -- -- 88
2020-10-19 00:00:00 11.4 3 Noroeste 6 Oeste 0 -- -- 88
2020-10-18 23:00:00 12 0 Calma 5 Nordeste 0 -- -- 88
2020-10-18 22:00:00 13.1 0 Calma 9 Sur 0 -- -- 85
2020-10-18 21:00:00 14.3 7 Sur 17 Sur 0 -- -- 82
2020-10-18 20:00:00 15 10 Sur 20 Sur 0 -- -- 75
2020-10-18 19:00:00 16.3 10 Sur 23 Sur 0 -- -- 68
2020-10-18 18:00:00 18.1 13 Sur 27 Sur 0 -- -- 62
2020-10-18 17:00:00 19.7 14 Sur 30 Sur 0 -- -- 52
2020-10-18 16:00:00 21 15 Sur 28 Sur 0 -- -- 43
2020-10-18 15:00:00 21.3 14 Sur 25 Sur 0 -- -- 34
2020-10-18 14:00:00 20.6 12 Sur 26 Sur 0 -- -- 35
2020-10-18 13:00:00 18.1 5 Sudoeste 13 Sudoeste 0 -- -- 39
2020-10-18 12:00:00 14 2 Norte 5 Norte 0 -- -- 48
2020-10-18 11:00:00 10.4 3 Norte 5 Noroeste 0 -- -- 57
2020-10-18 10:00:00 6.6 4 Noroeste 12 Noroeste 0 -- -- 71
2020-10-18 09:00:00 5.2 7 Noroeste 15 Noroeste 0 -- -- 76
2020-10-18 08:00:00 5.2 5 Oeste 15 Noroeste 0 -- -- 78
2020-10-18 07:00:00 5.5 8 Noroeste 15 Noroeste 0 -- -- 77
2020-10-18 06:00:00 5.8 8 Noroeste 15 Noroeste 0 -- -- 77
2020-10-18 05:00:00 6.1 6 Noroeste 15 Noroeste 0 -- -- 77
2020-10-18 04:00:00 6.7 5 Noroeste 12 Noroeste 0 -- -- 74
2020-10-18 03:00:00 7.4 8 Noroeste 14 Noroeste 0 -- -- 75
2020-10-18 02:00:00 7.8 8 Norte 14 Noroeste 0 -- -- 76
2020-10-18 01:00:00 8.4 7 Norte 17 Noroeste 0 -- -- 81
2020-10-18 00:00:00 9.2 4 Norte 12 Noroeste 0 -- -- 82
2020-10-17 23:00:00 10.1 3 Noroeste 6 Noroeste 0 -- -- 80
2020-10-17 22:00:00 11.1 2 Noroeste 5 Norte 0 -- -- 80
2020-10-17 21:00:00 12 0 Calma 7 Sur 0 -- -- 74
2020-10-17 20:00:00 13.3 4 Sur 14 Sur 0 -- -- 69
2020-10-17 19:00:00 14.9 8 Sur 24 Sur 0 -- -- 64
2020-10-17 18:00:00 16.4 15 Sur 32 Sur 0 -- -- 58
2020-10-17 17:00:00 17.2 21 Sur 36 Sur 0 -- -- 55
2020-10-17 16:00:00 20.5 6 Sudoeste 25 Oeste 0 -- -- 27
2020-10-17 15:00:00 19.4 15 Noroeste 28 Oeste 0 -- -- 27
2020-10-17 14:00:00 18.2 14 Noroeste 28 Noroeste 0 -- -- 28
2020-10-17 13:00:00 17 9 Noroeste 21 Oeste 0 -- -- 33
2020-10-17 12:00:00 12.4 2 Norte 5 Nordeste 0 -- -- 51
2020-10-17 11:00:00 8.6 3 Nordeste 9 Noroeste 0 -- -- 62
2020-10-17 10:00:00 4.8 6 Norte 15 Norte 0 -- -- 76
2020-10-17 09:00:00 3.4 9 Noroeste 17 Noroeste 0 -- -- 80
2020-10-17 08:00:00 3.6 8 Noroeste 15 Norte 0 -- -- 81
2020-10-17 07:00:00 3.7 8 Noroeste 15 Noroeste 0 -- -- 78
2020-10-17 06:00:00 4.2 8 Noroeste 14 Noroeste 0 -- -- 78
2020-10-17 05:00:00 4.7 7 Noroeste 15 Norte 0 -- -- 77
2020-10-17 04:00:00 4.9 7 Norte 14 Noroeste 0 -- -- 75
2020-10-17 03:00:00 5.5 8 Noroeste 15 Noroeste 0 -- -- 74
2020-10-17 02:00:00 6.2 5 Norte 15 Noroeste 0 -- -- 73
2020-10-17 01:00:00 7.1 6 Noroeste 14 Noroeste 0 -- -- 73
2020-10-17 00:00:00 7.8 7 Noroeste 14 Noroeste 0 -- -- 69
2020-10-16 23:00:00 8.6 2 Oeste 4 Noroeste 0 -- -- 71
2020-10-16 22:00:00 9.4 0 Calma 4 Este 0 -- -- 66
2020-10-16 21:00:00 10.9 3 Sur 16 Sur 0 -- -- 59
2020-10-16 20:00:00 12.2 9 Sur 23 Sudoeste 0 -- -- 53
2020-10-16 19:00:00 13.4 14 Sur 30 Sur 0 -- -- 48
2020-10-16 18:00:00 15.9 17 Sur 26 Sur 0 -- -- 40
2020-10-16 17:00:00 18.5 4 Oeste 17 Norte 0 -- -- 33
2020-10-16 16:00:00 18.1 8 Noroeste 19 Norte 0 -- -- 30
2020-10-16 15:00:00 18 3 Sudoeste 9 Oeste 0 -- -- 29
2020-10-16 14:00:00 15.8 5 Oeste 8 Oeste 0 -- -- 34
2020-10-16 13:00:00 14.6 3 Norte 23 Noroeste 0 -- -- 37
2020-10-16 12:00:00 12.5 8 Norte 18 Noroeste 0 -- -- 44
2020-10-16 11:00:00 10 13 Noroeste 22 Noroeste 0 -- -- 55
2020-10-16 10:00:00 7.7 10 Noroeste 24 Noroeste 0 -- -- 63
2020-10-16 09:00:00 6.5 10 Norte 21 Noroeste 0 -- -- 68
2020-10-16 08:00:00 6.5 9 Norte 22 Noroeste 0 -- -- 68
2020-10-16 07:00:00 6.9 9 Noroeste 23 Noroeste 0 -- -- 66
2020-10-16 06:00:00 7.3 10 Noroeste 25 Noroeste 0 -- -- 62
2020-10-16 05:00:00 7.7 13 Noroeste 29 Noroeste 0 -- -- 61
2020-10-16 04:00:00 8.1 14 Noroeste 27 Norte 0 -- -- 56
2020-10-16 03:00:00 8.2 18 Noroeste 32 Noroeste 0 -- -- 57
2020-10-16 02:00:00 8.7 19 Noroeste 43 Noroeste 0 -- -- 56
2020-10-16 01:00:00 9.3 18 Noroeste 40 Noroeste 0 -- -- 55
2020-10-16 00:00:00 10.2 14 Noroeste 35 Norte 0 -- -- 51
2020-10-15 23:00:00 11 24 Noroeste 39 Noroeste 0 -- -- 52
2020-10-15 22:00:00 12 14 Noroeste 27 Norte 0 -- -- 52
2020-10-15 21:00:00 12.8 14 Noroeste 27 Oeste 0 -- -- 51
2020-10-15 20:00:00 13.4 13 Noroeste 30 Noroeste 0 -- -- 50
2020-10-15 19:00:00 14 21 Noroeste 40 Norte 0 -- -- 47
2020-10-15 18:00:00 15.7 15 Noroeste 37 Oeste 0 -- -- 39
2020-10-15 17:00:00 15.2 23 Noroeste 44 Noroeste 0 -- -- 40
2020-10-15 16:00:00 15.2 28 Noroeste 44 Noroeste 0 -- -- 40
2020-10-15 15:00:00 15.4 23 Noroeste 42 Noroeste 0 -- -- 41
2020-10-15 14:00:00 14.8 22 Noroeste 43 Noroeste 0 -- -- 41
2020-10-15 13:00:00 14.6 26 Noroeste 43 Noroeste 0 -- -- 40
2020-10-15 12:00:00 13.3 20 Noroeste 41 Noroeste 0 -- -- 46
2020-10-15 11:00:00 11.7 28 Noroeste 48 Noroeste 0 -- -- 47
2020-10-15 10:00:00 9.6 18 Noroeste 35 Noroeste 0 -- -- 56
2020-10-15 09:00:00 8.7 18 Noroeste 39 Norte 0 -- -- 60
2020-10-15 08:00:00 8.4 22 Noroeste 31 Noroeste 0 -- -- 62
2020-10-15 07:00:00 8.4 20 Noroeste 34 Noroeste 0 -- -- 63
2020-10-15 06:00:00 8.4 21 Noroeste 36 Noroeste 0 -- -- 63
2020-10-15 05:00:00 8.6 14 Noroeste 25 Noroeste 0 -- -- 64
2020-10-15 04:00:00 9 17 Noroeste 35 Noroeste 0 -- -- 61
2020-10-15 03:00:00 9.5 18 Noroeste 32 Noroeste 0 -- -- 63
2020-10-15 02:00:00 10.1 17 Noroeste 31 Oeste 0 -- -- 61
2020-10-15 01:00:00 10.8 11 Noroeste 25 Oeste 0 -- -- 61
2020-10-15 00:00:00 11.4 13 Noroeste 29 Oeste 0 -- -- 57
2020-10-14 23:00:00 11.7 13 Noroeste 27 Noroeste 0 -- -- 58
2020-10-14 22:00:00 12.4 17 Noroeste 41 Noroeste 0 -- -- 55
2020-10-14 21:00:00 13.7 21 Noroeste 38 Noroeste 0 -- -- 50
2020-10-14 20:00:00 14.9 14 Noroeste 30 Noroeste 0 -- -- 45
2020-10-14 19:00:00 15.7 14 Noroeste 33 Noroeste 0 -- -- 36
2020-10-14 18:00:00 16.8 22 Noroeste 40 Noroeste 0 -- -- 34
2020-10-14 17:00:00 16.7 22 Noroeste 46 Noroeste 0 -- -- 36
2020-10-14 16:00:00 17.1 23 Norte 39 Noroeste 0 -- -- 33
2020-10-14 15:00:00 16.2 19 Noroeste 42 Noroeste 0 -- -- 40
2020-10-14 14:00:00 16.3 21 Noroeste 36 Noroeste 0 -- -- 43
2020-10-14 13:00:00 15.2 26 Noroeste 37 Noroeste 0 -- -- 43
2020-10-14 12:00:00 15 22 Noroeste 38 Noroeste 0 -- -- 46
2020-10-14 11:00:00 14 21 Noroeste 39 Norte 0 -- -- 52
2020-10-14 10:00:00 13 20 Noroeste 33 Noroeste 0 -- -- 61
2020-10-14 09:00:00 12 10 Noroeste 19 Noroeste 0 -- -- 69
2020-10-14 08:00:00 11.9 5 Norte 11 Noroeste 0 -- -- 70
2020-10-14 07:00:00 11.4 5 Norte 13 Noroeste 0 -- -- 74
2020-10-14 06:00:00 11.4 5 Noroeste 10 Noroeste 0 -- -- 75
2020-10-14 05:00:00 11.9 5 Noroeste 12 Noroeste 0 -- -- 75
2020-10-14 04:00:00 12.2 4 Noroeste 10 Oeste 0 -- -- 75
2020-10-14 03:00:00 12.7 3 Noroeste 12 Noroeste 0 -- -- 72
2020-10-14 02:00:00 13 3 Noroeste 14 Noroeste 0 -- -- 71
2020-10-14 01:00:00 13.3 5 Oeste 14 Noroeste 0 -- -- 71
2020-10-14 00:00:00 13.7 5 Noroeste 9 Noroeste 0 -- -- 71
2020-10-13 23:00:00 14.5 4 Norte 8 Noroeste 0 -- -- 76
2020-10-13 22:00:00 15.8 0 Calma 18 Sur 0 -- -- 79
2020-10-13 21:00:00 16.6 12 Sur 27 Sur 0 -- -- 74
2020-10-13 20:00:00 19.3 5 Sudeste 13 Sur 0 -- -- 52
2020-10-13 19:00:00 21.3 9 Noroeste 24 Noroeste 0 -- -- 39
2020-10-13 18:00:00 22.5 12 Norte 38 Noroeste 0 -- -- 38
2020-10-13 17:00:00 22.5 13 Noroeste 35 Oeste 0 -- -- 40
2020-10-13 16:00:00 22.2 18 Noroeste 39 Oeste 0 -- -- 41
2020-10-13 15:00:00 21.4 17 Noroeste 34 Noroeste 0 -- -- 45
2020-10-13 14:00:00 20.3 16 Noroeste 39 Oeste 0 -- -- 47
2020-10-13 13:00:00 19.8 18 Noroeste 36 Noroeste 0 -- -- 49
2020-10-13 12:00:00 18.6 16 Noroeste 40 Oeste 0 -- -- 52
2020-10-13 11:00:00 -- -- -- -- -- -- -- -- --
2020-10-13 10:00:00 -- -- -- -- -- -- -- -- --
2020-10-13 09:00:00 14.1 13 Noroeste 22 Norte 0 -- -- 59
2020-10-13 08:00:00 14.1 14 Noroeste 21 Noroeste 0 -- -- 55
2020-10-13 07:00:00 14.1 13 Noroeste 21 Noroeste 0 -- -- 54
2020-10-13 06:00:00 14.3 11 Noroeste 27 Noroeste 0 -- -- 54
2020-10-13 05:00:00 13.7 18 Noroeste 31 Noroeste 0 -- -- 55
2020-10-13 04:00:00 -- -- -- -- -- -- -- -- --
2020-10-13 03:00:00 13.2 14 Norte 27 Norte 0 -- -- 55
2020-10-13 02:00:00 13.5 13 Norte 25 Noroeste 0 -- -- 55
2020-10-13 01:00:00 -- -- -- -- -- -- -- -- --
2020-10-13 00:00:00 14.1 16 Noroeste 26 Norte 0 -- -- 50
2020-10-12 23:00:00 14.1 11 Noroeste 21 Oeste 0 -- -- 51
2020-10-12 22:00:00 14.4 8 Norte 17 Noroeste 0 -- -- 51
2020-10-12 21:00:00 15.1 5 Noroeste 21 Noroeste 0 -- -- 49
2020-10-12 20:00:00 16.3 14 Noroeste 37 Norte 0 -- -- 46
2020-10-12 19:00:00 17 18 Noroeste 38 Oeste 0 -- -- 42
2020-10-12 18:00:00 18.3 19 Noroeste 41 Oeste 0 -- -- 39
2020-10-12 17:00:00 18.9 19 Noroeste 38 Oeste 0 -- -- 37
2020-10-12 16:00:00 18.7 17 Noroeste 30 Oeste 0 -- -- 36
2020-10-12 15:00:00 18.1 8 Noroeste 25 Noroeste 0 -- -- 37
2020-10-12 14:00:00 17.3 12 Noroeste 26 Oeste 0 -- -- 39
2020-10-12 13:00:00 15.9 18 Noroeste 33 Oeste 0 -- -- 45
2020-10-12 12:00:00 15 18 Noroeste 29 Noroeste 0 -- -- 47
2020-10-12 11:00:00 13.7 14 Noroeste 29 Oeste 0 -- -- 49
2020-10-12 10:00:00 12.2 8 Noroeste 41 Noroeste 0 -- -- 53
2020-10-12 09:00:00 11.3 22 Noroeste 43 Oeste 0 -- -- 58
2020-10-12 08:00:00 10.9 21 Noroeste 42 Noroeste 0 -- -- 59
2020-10-12 07:00:00 11.2 18 Noroeste 55 Noroeste 0 -- -- 57
2020-10-12 06:00:00 11.3 33 Noroeste 62 Oeste 0 -- -- 56
2020-10-12 05:00:00 11.4 32 Noroeste 51 Noroeste 0 -- -- 58
2020-10-12 04:00:00 -- -- -- -- -- -- -- -- --
2020-10-12 03:00:00 11.5 26 Noroeste 39 Noroeste 0 -- -- 56
2020-10-12 02:00:00 11.6 21 Noroeste 42 Noroeste 0 -- -- 56
2020-10-12 01:00:00 11.9 19 Noroeste 43 Noroeste 0 -- -- 56
2020-10-12 00:00:00 12.4 27 Noroeste 48 Noroeste 0 -- -- 55
2020-10-11 23:00:00 12.4 27 Noroeste 53 Noroeste 0 -- -- 54
2020-10-11 22:00:00 12.9 25 Noroeste 49 Noroeste 0 -- -- 50
2020-10-11 21:00:00 -- -- -- -- -- -- -- -- --
2020-10-11 20:00:00 -- -- -- -- -- -- -- -- --
2020-10-11 19:00:00 15.7 30 Norte 51 Noroeste 0 -- -- 38
2020-10-11 18:00:00 17.3 28 Noroeste 48 Noroeste 0 -- -- 38
2020-10-11 17:00:00 18.1 21 Noroeste 47 Noroeste 0 -- -- 32
2020-10-11 16:00:00 18.1 28 Noroeste 48 Noroeste 0 -- -- 34
2020-10-11 15:00:00 18 24 Noroeste 49 Norte 0 -- -- 35
2020-10-11 14:00:00 17 21 Noroeste 51 Noroeste 0 -- -- 38
2020-10-11 13:00:00 16 25 Noroeste 65 Noroeste 0 -- -- 43
2020-10-11 12:00:00 14.3 22 Noroeste 49 Oeste 0 -- -- 46
2020-10-11 11:00:00 12.9 25 Noroeste 50 Noroeste 0 -- -- 49
2020-10-11 10:00:00 11.7 30 Noroeste 57 Noroeste 0 -- -- 53
2020-10-11 09:00:00 11.1 27 Noroeste 42 Oeste 0 -- -- 53
2020-10-11 08:00:00 11.5 21 Noroeste 46 Oeste 0 -- -- 56
2020-10-11 07:00:00 11.8 17 Noroeste 46 Oeste 0 -- -- 59
2020-10-11 06:00:00 11.8 19 Noroeste 42 Oeste 0 -- -- 62
2020-10-11 05:00:00 11.5 22 Noroeste 48 Noroeste 0 -- -- 62
2020-10-11 04:00:00 11.8 21 Noroeste 41 Oeste 0 -- -- 60
2020-10-11 03:00:00 13 22 Noroeste 48 Noroeste 0 -- -- 55
2020-10-11 02:00:00 14.3 22 Noroeste 38 Noroeste 0 -- -- 55
2020-10-11 01:00:00 14.9 15 Noroeste 29 Noroeste 0 -- -- 64
2020-10-11 00:00:00 15.8 13 Noroeste 24 Noroeste 0 -- -- 60
2020-10-10 23:00:00 17 13 Noroeste 21 Noroeste 0 -- -- 62
2020-10-10 22:00:00 17.3 3 Sur 13 Sudoeste 0 -- -- 85
2020-10-10 21:00:00 17.4 10 Sur 18 Sudoeste 0 -- -- 84
2020-10-10 20:00:00 18.1 9 Sur 16 Sudoeste 0 -- -- 77
2020-10-10 19:00:00 19.3 7 Sur 19 Sur 0 -- -- 71
2020-10-10 18:00:00 19.9 12 Sur 33 Sur 0 -- -- 67
2020-10-10 17:00:00 22.3 20 Sur 32 Sur 0 -- -- 60
2020-10-10 16:00:00 22.1 10 Sur 18 Sur 0 -- -- 56
2020-10-10 15:00:00 21.2 2 Sudoeste 8 Sur 0 -- -- 59
2020-10-10 14:00:00 20.2 0 Calma 8 Noroeste 0 -- -- 62
2020-10-10 13:00:00 19.5 5 Noroeste 8 Noroeste 0 -- -- 67
2020-10-10 12:00:00 19.3 4 Noroeste 10 Sur 0 -- -- 68
2020-10-10 11:00:00 17.2 2 Nordeste 8 Noroeste 0 -- -- 73
2020-10-10 10:00:00 13.9 6 Noroeste 10 Noroeste 0 -- -- 87
2020-10-10 09:00:00 12.9 6 Noroeste 10 Noroeste 0 -- -- 91
2020-10-10 08:00:00 13 4 Noroeste 8 Norte 0 -- -- 93
2020-10-10 07:00:00 13.4 5 Noroeste 9 Noroeste 0 -- -- 92
2020-10-10 06:00:00 13.9 3 Noroeste 9 Norte 0 -- -- 93
2020-10-10 05:00:00 14.3 0 Calma 4 Sudoeste 0 -- -- 96
2020-10-10 04:00:00 14.6 0 Calma 3 Sur 0 -- -- 94
2020-10-10 03:00:00 15.5 0 Calma 5 Sur 0 -- -- 93
2020-10-10 02:00:00 16.1 0 Calma 4 Nordeste 0 -- -- 91
2020-10-10 01:00:00 16.8 0 Calma 3 Este 0 -- -- 89
2020-10-10 00:00:00 18 2 Sudeste 3 Este 0 -- -- 86
2020-10-09 23:00:00 18.2 0 Calma 6 Sudoeste 0 -- -- 85
2020-10-09 22:00:00 18.3 4 Sur 12 Sur 0 -- -- 85
2020-10-09 21:00:00 18.4 6 Sur 15 Sur 0 -- -- 85
2020-10-09 20:00:00 18.5 8 Sur 23 Sudoeste 0 -- -- 85
2020-10-09 19:00:00 19.4 14 Sur 30 Sur 0 -- -- 81
2020-10-09 18:00:00 21.1 18 Sur 33 Sudoeste 0 -- -- 75
2020-10-09 17:00:00 22.7 19 Sur 35 Sudoeste 0 -- -- 69
2020-10-09 16:00:00 23.7 18 Sur 35 Sur 0 -- -- 64
2020-10-09 15:00:00 24.7 18 Sur 33 Sur 0 -- -- 58
2020-10-09 14:00:00 25.1 14 Sur 30 Sur 0 -- -- 54
2020-10-09 13:00:00 24.9 17 Sur 25 Sur 0 -- -- 48
2020-10-09 12:00:00 21.6 0 Calma 4 Sur 0 -- -- 57
2020-10-09 11:00:00 17.2 0 Calma 6 Nordeste 0 -- -- 71
2020-10-09 10:00:00 14.2 0 Calma 10 Norte 0 -- -- 85
2020-10-09 09:00:00 12.9 5 Noroeste 10 Oeste 0 -- -- 90
2020-10-09 08:00:00 12.9 4 Oeste 8 Oeste 0 -- -- 92
2020-10-09 07:00:00 13.2 0 Calma 4 Oeste 0 -- -- 94
2020-10-09 06:00:00 13.7 3 Noroeste 6 Oeste 0 -- -- 94
2020-10-09 05:00:00 14.2 3 Noroeste 7 Oeste 0 -- -- 94
2020-10-09 04:00:00 14.6 0 Calma 6 Oeste 0 -- -- 93
2020-10-09 03:00:00 15.4 3 Noroeste 4 Noroeste 0 -- -- 93
2020-10-09 02:00:00 16.1 3 Noroeste 4 Noroeste 0 -- -- 92
2020-10-09 01:00:00 16.6 2 Norte 4 Norte 0 -- -- 92
2020-10-09 00:00:00 17.6 2 Sudeste 7 Sur 0 -- -- 91
2020-10-08 23:00:00 17.8 0 Calma 11 Sudoeste 0 -- -- 90
2020-10-08 22:00:00 18 6 Sudoeste 15 Sur 0 -- -- 89
2020-10-08 21:00:00 18.1 11 Sur 26 Sur 0 -- -- 88
2020-10-08 20:00:00 18.8 12 Sur 22 Sur 0 -- -- 86
2020-10-08 19:00:00 20 13 Sur 31 Sur 0 -- -- 79
2020-10-08 18:00:00 22.4 17 Sur 33 Sur 0 -- -- 68
2020-10-08 17:00:00 25.5 13 Sur 32 Sur 0 -- -- 57
2020-10-08 16:00:00 25.7 15 Sur 29 Sur 0 -- -- 47
2020-10-08 15:00:00 25.5 13 Sur 26 Sur 0 -- -- 48
2020-10-08 14:00:00 25 6 Sur 25 Sur 0 -- -- 49
2020-10-08 13:00:00 22.4 5 Este 10 Este 0 -- -- 57
2020-10-08 12:00:00 19.1 2 Noroeste 5 Norte 0 -- -- 61
2020-10-08 11:00:00 15.3 3 Noroeste 5 Noroeste 0 -- -- 67
2020-10-08 10:00:00 12 2 Norte 15 Noroeste 0 -- -- 79
2020-10-08 09:00:00 10.4 8 Norte 14 Noroeste 0 -- -- 83
2020-10-08 08:00:00 10.8 9 Noroeste 15 Oeste 0 -- -- 83
2020-10-08 07:00:00 11.2 6 Noroeste 14 Noroeste 0 -- -- 82
2020-10-08 06:00:00 11.8 6 Noroeste 15 Noroeste 0 -- -- 82
2020-10-08 05:00:00 12.2 7 Noroeste 14 Noroeste 0 -- -- 79
2020-10-08 04:00:00 12.8 6 Noroeste 12 Noroeste 0 -- -- 78
2020-10-08 03:00:00 13.5 4 Noroeste 12 Noroeste 0 -- -- 75
2020-10-08 02:00:00 14.2 5 Noroeste 12 Noroeste 0 -- -- 73
2020-10-08 01:00:00 15.2 3 Noroeste 8 Norte 0 -- -- 70
2020-10-08 00:00:00 16.2 0 Calma 6 Norte 0 -- -- 68
2020-10-07 23:00:00 17.2 0 Calma 7 Norte 0 -- -- 65
2020-10-07 22:00:00 18.9 4 Norte 7 Norte 0 -- -- 60
2020-10-07 21:00:00 20.9 2 Sudeste 23 Sur 0 -- -- 51
2020-10-07 20:00:00 22.9 9 Sur 22 Sur 0 -- -- 45
2020-10-07 19:00:00 25.6 9 Noroeste 22 Oeste 0 -- -- 40
2020-10-07 18:00:00 26.6 13 Noroeste 29 Oeste 0 -- -- 40
2020-10-07 17:00:00 26.6 14 Noroeste 28 Oeste 0 -- -- 39
2020-10-07 16:00:00 26.4 12 Noroeste 22 Oeste 0 -- -- 40
2020-10-07 15:00:00 27 8 Oeste 20 Norte 0 -- -- 39
2020-10-07 14:00:00 26.6 5 Sudeste 14 Sur 0 -- -- 39
2020-10-07 13:00:00 24.5 4 Oeste 16 Sudoeste 0 -- -- 42
2020-10-07 12:00:00 22 4 Norte 21 Noroeste 0 -- -- 48
2020-10-07 11:00:00 20.3 7 Noroeste 17 Noroeste 0 -- -- 52
2020-10-07 10:00:00 18.8 9 Norte 19 Norte 0 -- -- 56
2020-10-07 09:00:00 17.6 10 Norte 28 Noroeste 0 -- -- 60
2020-10-07 08:00:00 17.4 9 Noroeste 15 Noroeste 0 -- -- 62
2020-10-07 07:00:00 17.4 9 Noroeste 19 Noroeste 0 -- -- 66
2020-10-07 06:00:00 17.4 11 Noroeste 19 Noroeste 0 -- -- 67
2020-10-07 05:00:00 14.6 3 Norte 10 Nordeste 0 -- -- 79
2020-10-07 04:00:00 14.7 2 Sur 4 Sur 0 -- -- 81
2020-10-07 03:00:00 15.4 0 Calma 7 Norte 0 -- -- 76
2020-10-07 02:00:00 16.6 2 Norte 11 Noroeste 0 -- -- 70
2020-10-07 01:00:00 18.2 10 Noroeste 23 Norte 0 -- -- 64
2020-10-07 00:00:00 17.6 5 Norte 12 Norte 0 -- -- 67
2020-10-06 23:00:00 18.7 0 Calma 8 Norte 0 -- -- 62
2020-10-06 22:00:00 20 2 Norte 15 Noroeste 0 -- -- 58
2020-10-06 21:00:00 20.9 9 Norte 14 Noroeste 0 -- -- 59
2020-10-06 20:00:00 21.4 3 Noroeste 12 Sudoeste 0 -- -- 54
2020-10-06 19:00:00 23.5 3 Noroeste 21 Noroeste 0 -- -- 49
2020-10-06 18:00:00 24.1 15 Noroeste 27 Noroeste 0 -- -- 45
2020-10-06 17:00:00 23.9 16 Noroeste 31 Noroeste 0 -- -- 47
2020-10-06 16:00:00 25.1 14 Noroeste 28 Oeste 0 -- -- 43
2020-10-06 15:00:00 24.6 18 Noroeste 31 Noroeste 0 -- -- 44
2020-10-06 14:00:00 24 15 Noroeste 26 Oeste 0 -- -- 44
2020-10-06 13:00:00 22.9 7 Noroeste 23 Oeste 0 -- -- 46
2020-10-06 12:00:00 21.4 12 Noroeste 22 Oeste 0 -- -- 47
2020-10-06 11:00:00 17.6 0 Calma 4 Norte 0 -- -- 51
2020-10-06 10:00:00 12.6 0 Calma 8 Noroeste 0 -- -- 67
2020-10-06 09:00:00 10.2 2 Sudoeste 19 Noroeste 0 -- -- 68
2020-10-06 08:00:00 10.1 12 Noroeste 21 Noroeste 0 -- -- 70
2020-10-06 07:00:00 8.8 4 Noroeste 11 Noroeste 0 -- -- 72
2020-10-06 06:00:00 8.4 0 Calma 8 Noroeste 0 -- -- 75
2020-10-06 05:00:00 8.6 0 Calma 6 Noroeste 0 -- -- 77
2020-10-06 04:00:00 8.6 0 Calma 6 Noroeste 0 -- -- 73
2020-10-06 03:00:00 9 0 Calma 6 Noroeste 0 -- -- 70
2020-10-06 02:00:00 9.4 3 Oeste 7 Noroeste 0 -- -- 70
2020-10-06 01:00:00 10.1 4 Noroeste 8 Noroeste 0 -- -- 67
2020-10-06 00:00:00 11 3 Noroeste 12 Noroeste 0 -- -- 63
2020-10-05 23:00:00 11.8 4 Noroeste 8 Norte 0 -- -- 63
2020-10-05 22:00:00 13.1 2 Norte 6 Norte 0 -- -- 62
2020-10-05 21:00:00 14.7 0 Calma 12 Sudeste 0 -- -- 55
2020-10-05 20:00:00 16.7 2 Sudeste 12 Oeste 0 -- -- 47
2020-10-05 19:00:00 19 9 Noroeste 26 Oeste 0 -- -- 36
2020-10-05 18:00:00 19.6 15 Noroeste 31 Noroeste 0 -- -- 32
2020-10-05 17:00:00 19.6 18 Noroeste 33 Noroeste 0 -- -- 34
2020-10-05 16:00:00 19.1 17 Noroeste 31 Noroeste 0 -- -- 36
2020-10-05 15:00:00 18.9 15 Noroeste 32 Oeste 0 -- -- 36
2020-10-05 14:00:00 18.2 14 Noroeste 32 Noroeste 0 -- -- 41
2020-10-05 13:00:00 16.9 17 Noroeste 43 Noroeste 0 -- -- 42
2020-10-05 12:00:00 15.4 25 Noroeste 41 Noroeste 0 -- -- 49
2020-10-05 11:00:00 14.3 20 Noroeste 37 Noroeste 0 -- -- 55
2020-10-05 10:00:00 10.3 8 Norte 20 Noroeste 0 -- -- 71
2020-10-05 09:00:00 7.4 3 Noroeste 12 Noroeste 0 -- -- 82
2020-10-05 08:00:00 7.6 3 Noroeste 15 Noroeste 0 -- -- 81
2020-10-05 07:00:00 8 9 Noroeste 18 Noroeste 0 -- -- 79
2020-10-05 06:00:00 7.8 11 Noroeste 17 Noroeste 0 -- -- 78
2020-10-05 05:00:00 8 6 Noroeste 13 Noroeste 0 -- -- 79
2020-10-05 04:00:00 8.5 6 Noroeste 11 Noroeste 0 -- -- 78
2020-10-05 03:00:00 9.3 6 Noroeste 11 Noroeste 0 -- -- 76
2020-10-05 02:00:00 10 4 Noroeste 9 Noroeste 0 -- -- 74
2020-10-05 01:00:00 10.5 0 Calma 6 Norte 0 -- -- 73
2020-10-05 00:00:00 11.6 2 Norte 6 Este 0 -- -- 66
2020-10-04 23:00:00 13.5 3 Sudeste 17 Noroeste 0 -- -- 58
2020-10-04 22:00:00 15.3 10 Noroeste 29 Noroeste 0 -- -- 52
2020-10-04 21:00:00 16.1 13 Noroeste 34 Oeste 0 -- -- 49
2020-10-04 20:00:00 16.9 15 Noroeste 30 Noroeste 0 -- -- 44
2020-10-04 19:00:00 17.7 20 Noroeste 38 Noroeste 0 -- -- 41
2020-10-04 18:00:00 18.1 26 Noroeste 44 Noroeste 0 -- -- 40
2020-10-04 17:00:00 17.5 24 Noroeste 77 Noroeste 0 -- -- 48
2020-10-04 16:00:00 18.8 22 Noroeste 46 Noroeste 0 -- -- 43
2020-10-04 15:00:00 18.4 21 Noroeste 42 Oeste 0 -- -- 47
2020-10-04 14:00:00 17.6 13 Noroeste 42 Noroeste 0 -- -- 45
2020-10-04 13:00:00 17.7 22 Noroeste 45 Norte 0 -- -- 44
2020-10-04 12:00:00 16.6 15 Noroeste 32 Norte 0 -- -- 46
2020-10-04 11:00:00 12.4 2 Nordeste 5 Norte 0 -- -- 62
2020-10-04 10:00:00 7.6 2 Nordeste 10 Noroeste 0 -- -- 78
2020-10-04 09:00:00 5.7 5 Noroeste 13 Norte 0 -- -- 83
2020-10-04 08:00:00 5.6 4 Noroeste 12 Norte 0 -- -- 84
2020-10-04 07:00:00 6.1 5 Noroeste 9 Noroeste 0 -- -- 83
2020-10-04 06:00:00 6.6 6 Noroeste 13 Noroeste 0 -- -- 80
2020-10-04 05:00:00 7.1 3 Noroeste 9 Noroeste 0 -- -- 81
2020-10-04 04:00:00 7.7 2 Oeste 9 Noroeste 0 -- -- 79
2020-10-04 03:00:00 8.4 4 Noroeste 10 Noroeste 0 -- -- 75
2020-10-04 02:00:00 9.3 2 Noroeste 7 Noroeste 0 -- -- 72
2020-10-04 01:00:00 10.1 6 Noroeste 12 Noroeste 0 -- -- 67
2020-10-04 00:00:00 11.3 3 Oeste 8 Oeste 0 -- -- 60
2020-10-03 23:00:00 12.8 2 Sur 15 Noroeste 0 -- -- 60
2020-10-03 22:00:00 14.6 10 Noroeste 21 Oeste 0 -- -- 47
2020-10-03 21:00:00 15.8 9 Noroeste 21 Oeste 0 -- -- 44
2020-10-03 20:00:00 16.9 11 Noroeste 28 Oeste 0 -- -- 42
2020-10-03 19:00:00 18.4 14 Noroeste 26 Noroeste 0 -- -- 39
2020-10-03 18:00:00 19.1 15 Noroeste 30 Noroeste 0 -- -- 38
2020-10-03 17:00:00 19 18 Noroeste 33 Norte 0 -- -- 37
2020-10-03 16:00:00 18.3 16 Noroeste 38 Noroeste 0 -- -- 38
2020-10-03 15:00:00 17.3 22 Noroeste 38 Noroeste 0 -- -- 39
2020-10-03 14:00:00 16.5 17 Noroeste 37 Noroeste 0 -- -- 41
2020-10-03 13:00:00 15.1 21 Noroeste 46 Noroeste 0 -- -- 45
2020-10-03 12:00:00 13.6 30 Noroeste 56 Noroeste 0 -- -- 49
2020-10-03 11:00:00 12.7 31 Noroeste 52 Noroeste 0 -- -- 53
2020-10-03 10:00:00 11.2 21 Noroeste 36 Norte 0 -- -- 55
2020-10-03 09:00:00 9.8 11 Noroeste 28 Noroeste 0 -- -- 60
2020-10-03 08:00:00 9.4 4 Noroeste 13 Noroeste 0 -- -- 60
2020-10-03 07:00:00 9.7 9 Noroeste 22 Noroeste 0 -- -- 61
2020-10-03 06:00:00 9.8 14 Noroeste 26 Oeste 0 -- -- 60
2020-10-03 05:00:00 10.1 15 Noroeste 33 Oeste 0 -- -- 57
2020-10-03 04:00:00 10.3 12 Noroeste 27 Oeste 0 -- -- 57
2020-10-03 03:00:00 10.4 15 Noroeste 38 Noroeste 0 -- -- 58
2020-10-03 02:00:00 10.3 16 Noroeste 34 Noroeste 0 -- -- 59
2020-10-03 01:00:00 10.5 12 Noroeste 45 Oeste 0 -- -- 59
2020-10-03 00:00:00 11.1 23 Noroeste 47 Noroeste 0 -- -- 57
2020-10-02 23:00:00 11.1 18 Noroeste 39 Oeste 0 -- -- 57
2020-10-02 22:00:00 11.6 17 Noroeste 33 Noroeste 0 -- -- 54
2020-10-02 21:00:00 10.9 15 Noroeste 33 Noroeste 0 -- -- 64
2020-10-02 20:00:00 11.4 17 Noroeste 38 Noroeste 0 -- -- 64
2020-10-02 19:00:00 11.2 15 Noroeste 55 Noroeste 0 -- -- 64
2020-10-02 18:00:00 11.3 9 Noroeste 27 Oeste 0 -- -- 67
2020-10-02 17:00:00 10.2 19 Noroeste 48 Noroeste 0 -- -- 72
2020-10-02 16:00:00 9.4 25 Noroeste 75 Norte 0.8 -- -- 82
2020-10-02 15:00:00 11.7 27 Noroeste 51 Noroeste 2.6 -- -- 75
2020-10-02 14:00:00 12.2 29 Noroeste 54 Norte 2.4 -- -- 90
2020-10-02 13:00:00 17.2 15 Noroeste 35 Noroeste 0 -- -- 73
2020-10-02 12:00:00 18.1 15 Noroeste 39 Oeste 0 -- -- 60
2020-10-02 11:00:00 16.4 11 Noroeste 24 Noroeste 0 -- -- 63
2020-10-02 10:00:00 16.1 7 Norte 40 Norte 0 -- -- 63
2020-10-02 09:00:00 16.1 22 Noroeste 43 Norte 0 -- -- 65
2020-10-02 08:00:00 16.5 26 Noroeste 41 Noroeste 0 -- -- 63
2020-10-02 07:00:00 17.1 11 Noroeste 25 Noroeste 0 -- -- 57
2020-10-02 06:00:00 17.3 9 Norte 35 Noroeste 0 -- -- 56
2020-10-02 05:00:00 17.9 7 Noroeste 25 Norte 0 -- -- 57
2020-10-02 04:00:00 18.3 12 Noroeste 23 Noroeste 0 -- -- 54
2020-10-02 03:00:00 18.7 14 Noroeste 26 Noroeste 0 -- -- 55
2020-10-02 02:00:00 14.7 0 Calma 6 Noroeste 0 -- -- 72
2020-10-02 01:00:00 15 4 Norte 8 Noroeste 0 -- -- 69
2020-10-02 00:00:00 15.6 6 Noroeste 13 Noroeste 0 -- -- 67
2020-10-01 23:00:00 16.3 2 Norte 6 Noroeste 0 -- -- 67
2020-10-01 22:00:00 17.4 2 Oeste 7 Norte 0 -- -- 65
2020-10-01 21:00:00 18.9 3 Norte 8 Norte 0 -- -- 58
2020-10-01 20:00:00 21.1 0 Calma 19 Sur 0 -- -- 50
2020-10-01 19:00:00 22.6 15 Sur 27 Sur 0 -- -- 47
2020-10-01 18:00:00 23.2 17 Sur 30 Sudoeste 0 -- -- 49
2020-10-01 17:00:00 25.4 10 Sur 37 Sudoeste 0 -- -- 44
2020-10-01 16:00:00 28.7 17 Sur 34 Sur 0 -- -- 36
2020-10-01 15:00:00 28.6 6 Sudoeste 18 Noroeste 0 -- -- 27
2020-10-01 14:00:00 26.1 10 Noroeste 24 Noroeste 0 -- -- 30
2020-10-01 13:00:00 24.8 18 Noroeste 36 Norte 0 -- -- 32
2020-10-01 12:00:00 22.5 4 Norte 10 Norte 0 -- -- 39
2020-10-01 11:00:00 17.3 0 Calma 5 Noroeste 0 -- -- 54
2020-10-01 10:00:00 13.7 0 Calma 3 Norte 0 -- -- 69
2020-10-01 09:00:00 12.1 3 Noroeste 6 Norte 0 -- -- 78
2020-10-01 08:00:00 11.7 0 Calma 4 Norte 0 -- -- 79
2020-10-01 07:00:00 11.8 0 Calma 5 Oeste 0 -- -- 83
2020-10-01 06:00:00 12.2 3 Oeste 6 Oeste 0 -- -- 86
2020-10-01 05:00:00 12.9 3 Noroeste 8 Noroeste 0 -- -- 88
2020-10-01 04:00:00 13.7 3 Noroeste 7 Noroeste 0 -- -- 89
2020-10-01 03:00:00 14.5 3 Noroeste 8 Noroeste 0 -- -- 90
2020-10-01 02:00:00 14.9 5 Noroeste 11 Noroeste 0 -- -- 90
2020-10-01 01:00:00 15.6 3 Noroeste 9 Noroeste 0 -- -- 89
2020-10-01 00:00:00 16 0 Calma 9 Noroeste 0 -- -- 89